Time;durP1;ratioP1;P1;durP2;ratioP2;P2;SDS_P1;SDS_P2;PMS_P1;PMS_P2;Temp;Humidity;BMP_temperature;BMP_pressure;BME280_temperature;BME280_humidity;BME280_pressure;Samples;Min_cycle;Max_cycle;Signal;HPM_P1;HPM_P2
2023/08/14 00:00:29;;;;;;;6.32;3.83;;;;;;;;;;5049414;28;20045;-63
2023/08/14 00:02:55;;;;;;;9.33;3.77;;;;;;;;;;5045418;28;20029;-62
2023/08/14 00:05:20;;;;;;;5.68;3.70;;;;;;;;;;5052515;28;20013;-61
2023/08/14 00:07:45;;;;;;;8.75;4.43;;;;;;;;;;5044793;28;20021;-62
2023/08/14 00:10:10;;;;;;;7.10;4.20;;;;;;;;;;5051878;28;20488;-61
2023/08/14 00:12:35;;;;;;;6.30;3.50;;;;;;;;;;5053099;28;20025;-61
2023/08/14 00:15:00;;;;;;;5.80;3.63;;;;;;;;;;5052720;28;20548;-60
2023/08/14 00:17:26;;;;;;;7.03;3.83;;;;;;;;;;5051019;28;20099;-61
2023/08/14 00:19:51;;;;;;;5.60;3.23;;;;;;;;;;5050823;28;20496;-62
2023/08/14 00:22:16;;;;;;;6.63;4.00;;;;;;;;;;5048082;28;20028;-60
2023/08/14 00:24:41;;;;;;;6.57;3.22;;;;;;;;;;5052876;28;20021;-62
2023/08/14 00:27:06;;;;;;;6.80;3.80;;;;;;;;;;5052698;28;20447;-61
2023/08/14 00:29:31;;;;;;;7.70;3.83;;;;;;;;;;5053079;28;20024;-61
2023/08/14 00:31:56;;;;;;;7.20;3.70;;;;;;;;;;5049854;28;20084;-60
2023/08/14 00:34:22;;;;;;;7.78;4.60;;;;;;;;;;5052058;28;20104;-61
2023/08/14 00:36:47;;;;;;;7.40;4.18;;;;;;;;;;5050885;28;20090;-60
2023/08/14 00:39:12;;;;;;;6.00;3.95;;;;;;;;;;5052539;28;20032;-60
2023/08/14 00:41:37;;;;;;;6.47;4.10;;;;;;;;;;5048986;28;20075;-61
2023/08/14 00:44:03;;;;;;;6.47;3.97;;;;;;;;;;5044394;28;20084;-63
2023/08/14 00:46:28;;;;;;;6.80;4.20;;;;;;;;;;5050608;28;20021;-63
2023/08/14 00:48:54;;;;;;;5.85;4.10;;;;;;;;;;5051139;28;20013;-63
2023/08/14 00:51:22;;;;;;;6.00;3.80;;;;;;;;;;5043589;28;20024;-61
2023/08/14 00:53:48;;;;;;;7.38;4.30;;;;;;;;;;5043640;28;20024;-62
2023/08/14 00:56:14;;;;;;;6.07;3.72;;;;;;;;;;5050266;28;20370;-62
2023/08/14 00:58:39;;;;;;;6.90;4.00;;;;;;;;;;5049238;28;20020;-61
2023/08/14 01:01:05;;;;;;;10.30;4.60;;;;;;;;;;5042826;28;20017;-61
2023/08/14 01:03:31;;;;;;;6.32;3.90;;;;;;;;;;5038393;28;20021;-62
2023/08/14 01:05:56;;;;;;;6.28;3.80;;;;;;;;;;5044522;28;20029;-62
2023/08/14 01:08:21;;;;;;;6.90;3.90;;;;;;;;;;5047871;28;20017;-61
2023/08/14 01:11:00;;;;;;;8.20;4.70;;;;;;;;;;5050613;28;20021;-63
2023/08/14 01:13:30;;;;;;;6.38;4.10;;;;;;;;;;5043860;28;20033;-62
2023/08/14 01:15:57;;;;;;;7.45;4.43;;;;;;;;;;5057018;28;20107;-62
2023/08/14 01:18:24;;;;;;;5.93;4.05;;;;;;;;;;5046873;28;20029;-65
2023/08/14 01:20:58;;;;;;;6.90;4.25;;;;;;;;;;5041189;28;20029;-62
2023/08/14 01:23:35;;;;;;;7.05;3.97;;;;;;;;;;5039043;28;20032;-61
2023/08/14 01:26:00;;;;;;;7.35;4.35;;;;;;;;;;5049728;28;20439;-63
2023/08/14 01:28:26;;;;;;;8.43;4.20;;;;;;;;;;5045384;28;20021;-62
2023/08/14 01:30:52;;;;;;;6.63;3.72;;;;;;;;;;5044298;28;20083;-61
2023/08/14 01:33:17;;;;;;;6.43;4.30;;;;;;;;;;5046477;28;20040;-62
2023/08/14 01:35:44;;;;;;;6.03;4.00;;;;;;;;;;5051886;28;20028;-61
2023/08/14 01:38:27;;;;;;;6.00;3.70;;;;;;;;;;5047018;28;20044;-62
2023/08/14 01:40:59;;;;;;;7.03;4.22;;;;;;;;;;5042434;28;20025;-62
2023/08/14 01:43:26;;;;;;;6.47;3.88;;;;;;;;;;5044162;28;20104;-63
2023/08/14 01:45:52;;;;;;;7.60;4.13;;;;;;;;;;5043249;28;20086;-62
2023/08/14 01:48:18;;;;;;;10.70;4.32;;;;;;;;;;5041008;28;20033;-62
2023/08/14 01:50:45;;;;;;;6.47;4.15;;;;;;;;;;5045478;28;20021;-62
2023/08/14 01:53:10;;;;;;;6.85;3.90;;;;;;;;;;5042735;28;20103;-62
2023/08/14 01:55:35;;;;;;;7.30;4.37;;;;;;;;;;5037837;28;20472;-62
2023/08/14 01:58:00;;;;;;;6.40;4.25;;;;;;;;;;5049608;28;20447;-61
2023/08/14 02:00:26;;;;;;;6.57;3.90;;;;;;;;;;5050898;28;20149;-62
2023/08/14 02:02:51;;;;;;;6.13;4.18;;;;;;;;;;5033255;28;20018;-62
2023/08/14 02:05:17;;;;;;;6.47;3.83;;;;;;;;;;5049706;28;20033;-61
2023/08/14 02:07:42;;;;;;;5.63;3.77;;;;;;;;;;5048036;28;20088;-61
2023/08/14 02:10:08;;;;;;;6.47;4.15;;;;;;;;;;5049172;28;20044;-62
2023/08/14 02:12:33;;;;;;;11.77;3.88;;;;;;;;;;5047263;28;20100;-61
2023/08/14 02:14:58;;;;;;;10.73;4.77;;;;;;;;;;5046546;28;20028;-61
2023/08/14 02:17:23;;;;;;;6.28;4.10;;;;;;;;;;5047767;28;20025;-62
2023/08/14 02:19:49;;;;;;;6.78;4.28;;;;;;;;;;5042885;28;20017;-62
2023/08/14 02:22:14;;;;;;;6.07;3.93;;;;;;;;;;5042440;28;20033;-61
2023/08/14 02:24:39;;;;;;;6.40;4.30;;;;;;;;;;5036081;28;20009;-61
2023/08/14 02:27:04;;;;;;;8.73;4.50;;;;;;;;;;5044752;28;20060;-60
2023/08/14 02:29:29;;;;;;;5.80;3.93;;;;;;;;;;5044511;28;20032;-60
2023/08/14 02:31:54;;;;;;;7.78;4.88;;;;;;;;;;5042797;28;20029;-61
2023/08/14 02:34:38;;;;;;;8.40;4.23;;;;;;;;;;5044693;28;20023;-62
2023/08/14 02:37:03;;;;;;;6.82;4.57;;;;;;;;;;5034826;28;20044;-62
2023/08/14 02:39:28;;;;;;;7.40;5.10;;;;;;;;;;5046145;28;20017;-62
2023/08/14 02:41:54;;;;;;;8.37;4.70;;;;;;;;;;5045424;28;20016;-62
2023/08/14 02:44:19;;;;;;;7.93;5.07;;;;;;;;;;5045995;28;20079;-62
2023/08/14 02:46:44;;;;;;;7.45;4.50;;;;;;;;;;5036166;28;20025;-61
2023/08/14 02:49:09;;;;;;;7.50;4.20;;;;;;;;;;5039243;28;20029;-61
2023/08/14 02:51:34;;;;;;;8.48;4.47;;;;;;;;;;5037857;28;20041;-62
2023/08/14 02:54:00;;;;;;;6.78;4.18;;;;;;;;;;5031703;28;20025;-61
2023/08/14 02:56:26;;;;;;;6.50;4.22;;;;;;;;;;5041200;28;20087;-62
2023/08/14 02:58:51;;;;;;;7.70;4.28;;;;;;;;;;5045752;28;20036;-61
2023/08/14 03:01:16;;;;;;;7.43;4.20;;;;;;;;;;5042225;28;20029;-63
2023/08/14 03:03:41;;;;;;;6.93;4.20;;;;;;;;;;5042736;28;20106;-62
2023/08/14 03:06:06;;;;;;;7.50;4.70;;;;;;;;;;5042484;28;20032;-63
2023/08/14 03:08:31;;;;;;;6.23;4.00;;;;;;;;;;5035879;28;20021;-62
2023/08/14 03:10:57;;;;;;;6.10;3.97;;;;;;;;;;5042033;28;20025;-62
2023/08/14 03:13:22;;;;;;;6.93;3.87;;;;;;;;;;5044877;28;20052;-61
2023/08/14 03:15:47;;;;;;;6.27;3.87;;;;;;;;;;5048272;28;20024;-61
2023/08/14 03:18:12;;;;;;;9.37;4.87;;;;;;;;;;5046510;28;20028;-61
2023/08/14 03:20:37;;;;;;;6.60;4.30;;;;;;;;;;5041430;28;20025;-62
2023/08/14 03:23:03;;;;;;;7.07;4.43;;;;;;;;;;5041805;28;20032;-65
2023/08/14 03:25:28;;;;;;;6.63;3.90;;;;;;;;;;5048003;28;20017;-62
2023/08/14 03:27:53;;;;;;;8.35;4.38;;;;;;;;;;5041217;28;20457;-62
2023/08/14 03:30:18;;;;;;;7.22;4.43;;;;;;;;;;5051177;28;20542;-61
2023/08/14 03:32:43;;;;;;;7.25;4.63;;;;;;;;;;5047242;28;20021;-62
2023/08/14 03:35:08;;;;;;;6.60;4.47;;;;;;;;;;5053412;28;20024;-61
2023/08/14 03:37:34;;;;;;;8.35;5.40;;;;;;;;;;5047391;28;20055;-61
2023/08/14 03:39:59;;;;;;;8.85;4.53;;;;;;;;;;5039575;28;20112;-63
2023/08/14 03:42:24;;;;;;;7.30;4.37;;;;;;;;;;5051459;28;20063;-60
2023/08/14 03:44:49;;;;;;;6.40;4.20;;;;;;;;;;5047079;28;20045;-60
2023/08/14 03:47:15;;;;;;;7.87;4.00;;;;;;;;;;5051739;28;20082;-60
2023/08/14 03:49:40;;;;;;;6.30;4.53;;;;;;;;;;5052578;28;20564;-60
2023/08/14 03:52:05;;;;;;;10.00;4.47;;;;;;;;;;5053066;28;20029;-61
2023/08/14 03:54:30;;;;;;;6.27;4.10;;;;;;;;;;5044570;28;20044;-62
2023/08/14 03:56:55;;;;;;;8.17;4.43;;;;;;;;;;5047610;28;20022;-61
2023/08/14 03:59:21;;;;;;;7.70;4.13;;;;;;;;;;5044235;28;20017;-60
2023/08/14 04:01:46;;;;;;;7.30;4.43;;;;;;;;;;5048403;28;20369;-60
2023/08/14 04:04:11;;;;;;;6.95;4.22;;;;;;;;;;5052438;28;20025;-60
2023/08/14 04:06:37;;;;;;;5.90;3.90;;;;;;;;;;5051555;28;20094;-60
2023/08/14 04:09:03;;;;;;;7.38;4.20;;;;;;;;;;5053500;28;20049;-60
2023/08/14 04:11:30;;;;;;;;;;;;;;;;;;5049620;28;20020;-60
2023/08/14 04:13:55;;;;;;;6.85;4.18;;;;;;;;;;5044691;28;19927;-60
2023/08/14 04:16:20;;;;;;;5.63;3.70;;;;;;;;;;5047700;28;20021;-60
2023/08/14 04:18:47;;;;;;;6.05;3.70;;;;;;;;;;5051950;28;20017;-59
2023/08/14 04:21:12;;;;;;;;;;;;;;;;;;5052198;28;20033;-61
2023/08/14 04:23:37;;;;;;;6.95;3.90;;;;;;;;;;5041349;28;19926;-60
2023/08/14 04:26:02;;;;;;;5.88;3.58;;;;;;;;;;5046288;28;20060;-60
2023/08/14 04:28:27;;;;;;;6.07;3.95;;;;;;;;;;5048958;28;20021;-59
2023/08/14 04:30:52;;;;;;;6.50;3.92;;;;;;;;;;5041192;28;20505;-60
2023/08/14 04:33:18;;;;;;;6.27;3.80;;;;;;;;;;5045352;28;20056;-60
2023/08/14 04:35:43;;;;;;;8.68;3.97;;;;;;;;;;5039636;28;20021;-60
2023/08/14 04:38:10;;;;;;;6.30;3.40;;;;;;;;;;5039166;28;20087;-62
2023/08/14 04:40:35;;;;;;;6.90;4.20;;;;;;;;;;5046793;28;20439;-60
2023/08/14 04:43:00;;;;;;;7.80;4.40;;;;;;;;;;5048198;28;20013;-61
2023/08/14 04:45:25;;;;;;;9.47;4.13;;;;;;;;;;5046348;28;20485;-60
2023/08/14 04:47:50;;;;;;;6.03;3.73;;;;;;;;;;5044324;28;20477;-60
2023/08/14 04:50:16;;;;;;;6.33;3.80;;;;;;;;;;5041913;28;20021;-60
2023/08/14 04:52:41;;;;;;;8.87;4.17;;;;;;;;;;5043958;28;20024;-60
2023/08/14 04:55:06;;;;;;;6.43;3.67;;;;;;;;;;5047302;28;20116;-63
2023/08/14 04:57:31;;;;;;;8.18;4.35;;;;;;;;;;5039056;28;20029;-62
2023/08/14 04:59:57;;;;;;;7.60;4.10;;;;;;;;;;5044993;28;20392;-62
2023/08/14 05:02:22;;;;;;;7.15;3.85;;;;;;;;;;5041534;28;20418;-63
2023/08/14 05:04:47;;;;;;;7.77;4.30;;;;;;;;;;5044604;28;20039;-61
2023/08/14 05:07:13;;;;;;;6.47;3.47;;;;;;;;;;5049631;28;20086;-62
2023/08/14 05:09:38;;;;;;;7.40;3.87;;;;;;;;;;5042180;28;20385;-61
2023/08/14 05:12:03;;;;;;;6.75;3.78;;;;;;;;;;5047152;28;20025;-60
2023/08/14 05:14:28;;;;;;;5.78;3.40;;;;;;;;;;5045649;28;20018;-60
2023/08/14 05:16:53;;;;;;;6.90;3.53;;;;;;;;;;5044672;28;20036;-60
2023/08/14 05:19:19;;;;;;;6.30;3.43;;;;;;;;;;5040289;28;20025;-60
2023/08/14 05:21:45;;;;;;;5.40;3.60;;;;;;;;;;5046725;28;20029;-61
2023/08/14 05:24:10;;;;;;;5.97;3.70;;;;;;;;;;5037259;28;20032;-59
2023/08/14 05:26:35;;;;;;;6.60;3.53;;;;;;;;;;5035871;28;20029;-62
2023/08/14 05:29:00;;;;;;;7.17;3.53;;;;;;;;;;5036876;28;20068;-62
2023/08/14 05:31:25;;;;;;;6.40;3.80;;;;;;;;;;5039521;28;20108;-61
2023/08/14 05:33:51;;;;;;;8.15;3.97;;;;;;;;;;5036392;28;20582;-61
2023/08/14 05:36:16;;;;;;;6.38;3.47;;;;;;;;;;5037885;28;20025;-61
2023/08/14 05:38:43;;;;;;;7.82;3.45;;;;;;;;;;5034142;28;20057;-61
2023/08/14 05:41:09;;;;;;;7.63;3.50;;;;;;;;;;5031618;28;20079;-63
2023/08/14 05:43:34;;;;;;;7.17;3.50;;;;;;;;;;5038940;28;20029;-60
2023/08/14 05:45:59;;;;;;;7.63;3.73;;;;;;;;;;5040980;28;20537;-62
2023/08/14 05:48:24;;;;;;;7.37;3.43;;;;;;;;;;5047233;28;20028;-62
2023/08/14 05:50:52;;;;;;;8.25;3.80;;;;;;;;;;5034611;28;20025;-61
2023/08/14 05:53:18;;;;;;;5.63;3.42;;;;;;;;;;5041137;28;20033;-61
2023/08/14 05:55:43;;;;;;;7.47;3.78;;;;;;;;;;5041610;28;20112;-61
2023/08/14 05:58:08;;;;;;;8.33;3.37;;;;;;;;;;5035433;28;20089;-61
2023/08/14 06:00:34;;;;;;;6.53;3.80;;;;;;;;;;5037703;28;20094;-61
2023/08/14 06:02:59;;;;;;;;;;;;;;;;;;5035478;28;20079;-60
2023/08/14 06:05:24;;;;;;;7.07;3.45;;;;;;;;;;5042792;28;19913;-60
2023/08/14 06:07:51;;;;;;;6.13;3.33;;;;;;;;;;5049327;28;20013;-61
2023/08/14 06:10:16;;;;;;;5.97;3.30;;;;;;;;;;5045248;28;20078;-61
2023/08/14 06:12:41;;;;;;;7.33;3.57;;;;;;;;;;5045853;28;20480;-60
2023/08/14 06:15:07;;;;;;;6.32;3.42;;;;;;;;;;5049320;28;20096;-60
2023/08/14 06:17:32;;;;;;;5.95;3.53;;;;;;;;;;5049049;28;20017;-59
2023/08/14 06:20:01;;;;;;;7.03;3.40;;;;;;;;;;5051407;28;20016;-61
2023/08/14 06:22:26;;;;;;;5.28;3.00;;;;;;;;;;5042103;28;20024;-62
2023/08/14 06:24:51;;;;;;;5.93;3.40;;;;;;;;;;5047260;28;20017;-60
2023/08/14 06:27:16;;;;;;;;;;;;;;;;;;5052220;28;20429;-62
2023/08/14 06:29:41;;;;;;;8.27;3.50;;;;;;;;;;5039776;28;19920;-63
2023/08/14 06:32:06;;;;;;;;;;;;;;;;;;5045174;28;20033;-60
2023/08/14 06:34:31;;;;;;;5.72;2.90;;;;;;;;;;5030767;28;20368;-61
2023/08/14 06:36:57;;;;;;;7.90;3.33;;;;;;;;;;5039001;28;20033;-59
2023/08/14 06:39:22;;;;;;;;;;;;;;;;;;5047232;28;20033;-61
2023/08/14 06:41:47;;;;;;;7.80;3.00;;;;;;;;;;5031530;28;20336;-59
2023/08/14 06:44:12;;;;;;;7.57;3.43;;;;;;;;;;5037307;28;20021;-59
2023/08/14 06:46:37;;;;;;;5.87;3.23;;;;;;;;;;5038003;28;20034;-60
2023/08/14 06:49:03;;;;;;;;;;;;;;;;;;5040812;28;21687;-61
2023/08/14 06:51:28;;;;;;;8.32;3.40;;;;;;;;;;5047943;28;19909;-61
2023/08/14 06:53:53;;;;;;;;;;;;;;;;;;5039406;28;20028;-61
2023/08/14 06:56:19;;;;;;;6.70;3.00;;;;;;;;;;5050944;28;20337;-59
2023/08/14 06:58:44;;;;;;;7.97;3.08;;;;;;;;;;5051003;28;20031;-59
2023/08/14 07:01:09;;;;;;;;;;;;;;;;;;5050676;28;20032;-61
2023/08/14 07:03:34;;;;;;;6.25;2.80;;;;;;;;;;5049360;28;19912;-59
2023/08/14 07:05:59;;;;;;;;;;;;;;;;;;5050252;28;20069;-59
2023/08/14 07:08:25;;;;;;;6.68;2.80;;;;;;;;;;5046180;28;20485;-59
2023/08/14 07:10:50;;;;;;;5.27;2.50;;;;;;;;;;5041721;28;20017;-63
2023/08/14 07:13:15;;;;;;;;;;;;;;;;;;5030836;28;20017;-61
2023/08/14 07:15:40;;;;;;;5.32;2.33;;;;;;;;;;5030151;28;19909;-60
2023/08/14 07:18:06;;;;;;;;;;;;;;;;;;5031512;28;20021;-62
2023/08/14 07:20:31;;;;;;;4.85;2.38;;;;;;;;;;5030844;28;19912;-61
2023/08/14 07:22:56;;;;;;;;;;;;;;;;;;5046618;28;20503;-62
2023/08/14 07:25:21;;;;;;;5.78;2.58;;;;;;;;;;5050363;28;19968;-62
2023/08/14 07:27:47;;;;;;;;;;;;;;;;;;5051778;28;20147;-61
2023/08/14 07:30:12;;;;;;;5.60;2.45;;;;;;;;;;5044852;28;19909;-59
2023/08/14 07:32:37;;;;;;;5.83;2.70;;;;;;;;;;5042857;28;20041;-61
2023/08/14 07:35:03;;;;;;;;;;;;;;;;;;5042224;28;20028;-59
2023/08/14 07:37:28;;;;;;;8.52;2.58;;;;;;;;;;5030419;28;19905;-61
2023/08/14 07:39:53;;;;;;;;;;;;;;;;;;5030767;28;20022;-61
2023/08/14 07:42:18;;;;;;;6.28;3.00;;;;;;;;;;5030453;28;19905;-59
2023/08/14 07:44:43;;;;;;;7.72;2.53;;;;;;;;;;5043847;28;20414;-59
2023/08/14 07:47:10;;;;;;;;;;;;;;;;;;5049841;28;20029;-61
2023/08/14 07:49:36;;;;;;;5.38;2.80;;;;;;;;;;5050225;28;19916;-61
2023/08/14 07:52:01;;;;;;;;;;;;;;;;;;5050725;28;20017;-61
2023/08/14 07:54:26;;;;;;;5.18;2.55;;;;;;;;;;5049129;28;19916;-60
2023/08/14 07:56:54;;;;;;;6.97;2.80;;;;;;;;;;5050184;28;20075;-61
2023/08/14 07:59:19;;;;;;;4.53;2.40;;;;;;;;;;5048285;28;20116;-61
2023/08/14 08:01:44;;;;;;;;;;;;;;;;;;5050392;28;20116;-60
2023/08/14 08:04:09;;;;;;;6.40;2.63;;;;;;;;;;5046700;28;20556;-62
2023/08/14 08:06:35;;;;;;;4.28;2.30;;;;;;;;;;5049727;28;20025;-61
2023/08/14 08:09:00;;;;;;;;;;;;;;;;;;5050281;28;20472;-61
2023/08/14 08:11:25;;;;;;;5.78;2.60;;;;;;;;;;5041936;28;19909;-60
2023/08/14 08:13:50;;;;;;;;;;;;;;;;;;5051166;28;20425;-61
2023/08/14 08:16:15;;;;;;;4.70;2.13;;;;;;;;;;5053381;28;19910;-61
2023/08/14 08:18:41;;;;;;;;;;;;;;;;;;5054126;28;20017;-60
2023/08/14 08:21:06;;;;;;;6.80;2.80;;;;;;;;;;5053548;28;19904;-60
2023/08/14 08:23:31;;;;;;;;;;;;;;;;;;5053216;28;20021;-60
2023/08/14 08:25:56;;;;;;;7.45;2.90;;;;;;;;;;5041801;28;19916;-61
2023/08/14 08:28:21;;;;;;;;;;;;;;;;;;5053016;28;20017;-61
2023/08/14 08:30:46;;;;;;;4.50;2.78;;;;;;;;;;5053416;28;20280;-62
2023/08/14 08:33:11;;;;;;;;;;;;;;;;;;5053504;28;20144;-61
2023/08/14 08:35:37;;;;;;;5.95;2.90;;;;;;;;;;5052591;28;19904;-59
2023/08/14 08:38:02;;;;;;;;;;;;;;;;;;5053513;28;20013;-59
2023/08/14 08:40:27;;;;;;;5.22;2.85;;;;;;;;;;5051659;28;19915;-60
2023/08/14 08:42:52;;;;;;;;;;;;;;;;;;5053264;28;20484;-60
2023/08/14 08:45:18;;;;;;;6.53;3.10;;;;;;;;;;5052330;28;19905;-61
2023/08/14 08:47:47;;;;;;;6.80;3.05;;;;;;;;;;5052976;28;20021;-60
2023/08/14 08:50:13;;;;;;;6.15;3.05;;;;;;;;;;5052773;28;20377;-60
2023/08/14 08:52:38;;;;;;;;;;;;;;;;;;5053446;28;20101;-60
2023/08/14 08:55:04;;;;;;;5.45;2.78;;;;;;;;;;5049805;28;19999;-62
2023/08/14 08:57:29;;;;;;;;;;;;;;;;;;5046684;28;20025;-60
2023/08/14 08:59:57;;;;;;;5.40;3.20;;;;;;;;;;5052655;28;19909;-61
2023/08/14 09:02:22;;;;;;;7.57;3.05;;;;;;;;;;5052792;28;20079;-59
2023/08/14 09:04:47;;;;;;;;;;;;;;;;;;5048568;28;20025;-59
2023/08/14 09:07:13;;;;;;;6.00;3.10;;;;;;;;;;5052241;28;19964;-59
2023/08/14 09:09:38;;;;;;;;;;;;;;;;;;5049428;28;20056;-59
2023/08/14 09:12:03;;;;;;;5.70;2.92;;;;;;;;;;5041265;28;20368;-60
2023/08/14 09:14:28;;;;;;;5.22;3.03;;;;;;;;;;5052313;28;20025;-60
2023/08/14 09:16:53;;;;;;;5.67;2.83;;;;;;;;;;5053037;28;20021;-60
2023/08/14 09:19:19;;;;;;;7.03;2.77;;;;;;;;;;5052727;28;20040;-60
2023/08/14 09:21:44;;;;;;;8.33;3.57;;;;;;;;;;5052282;28;20032;-60
2023/08/14 09:24:10;;;;;;;;;;;;;;;;;;5051207;28;20439;-60
2023/08/14 09:26:35;;;;;;;8.27;3.70;;;;;;;;;;5042586;28;19921;-60
2023/08/14 09:29:00;;;;;;;6.53;2.80;;;;;;;;;;5052056;28;20423;-60
2023/08/14 09:31:29;;;;;;;5.40;3.20;;;;;;;;;;5052278;28;20047;-61
2023/08/14 09:33:54;;;;;;;6.10;3.03;;;;;;;;;;5051614;28;20035;-60
2023/08/14 09:36:19;;;;;;;5.67;2.80;;;;;;;;;;5051938;28;20021;-61
2023/08/14 09:38:45;;;;;;;6.60;3.10;;;;;;;;;;5050614;28;20138;-61
2023/08/14 09:41:10;;;;;;;7.63;2.90;;;;;;;;;;5051032;28;20104;-61
2023/08/14 09:43:35;;;;;;;4.93;3.00;;;;;;;;;;5051393;28;20017;-60
2023/08/14 09:46:01;;;;;;;5.60;3.10;;;;;;;;;;5051609;28;20448;-60
2023/08/14 09:48:40;;;;;;;5.68;3.08;;;;;;;;;;5051841;28;20147;-61
2023/08/14 09:51:08;;;;;;;4.93;2.92;;;;;;;;;;5051769;28;20412;-61
2023/08/14 09:53:42;;;;;;;8.38;3.17;;;;;;;;;;5043624;28;20016;-60
2023/08/14 09:56:07;;;;;;;5.45;2.90;;;;;;;;;;5048757;28;20021;-59
2023/08/14 09:58:33;;;;;;;6.20;2.75;;;;;;;;;;5051684;28;20096;-60
2023/08/14 10:00:58;;;;;;;7.63;2.97;;;;;;;;;;5051585;28;20095;-60
2023/08/14 10:03:24;;;;;;;5.60;3.00;;;;;;;;;;5049748;28;20496;-60
2023/08/14 10:05:49;;;;;;;7.13;3.30;;;;;;;;;;5051072;28;20463;-62
2023/08/14 10:08:15;;;;;;;6.70;3.00;;;;;;;;;;5041496;28;20030;-60
2023/08/14 10:10:40;;;;;;;6.57;3.03;;;;;;;;;;5051133;28;20516;-60
2023/08/14 10:13:08;;;;;;;5.88;3.17;;;;;;;;;;5051211;28;20028;-59
2023/08/14 10:15:36;;;;;;;5.97;2.90;;;;;;;;;;5050796;28;20052;-62
2023/08/14 10:18:08;;;;;;;5.82;2.75;;;;;;;;;;5043320;28;20017;-59
2023/08/14 10:20:34;;;;;;;5.57;2.78;;;;;;;;;;5050782;28;20020;-61
2023/08/14 10:23:00;;;;;;;7.72;3.20;;;;;;;;;;5051144;28;20020;-61
2023/08/14 10:25:25;;;;;;;6.40;3.00;;;;;;;;;;5050866;28;20028;-62
2023/08/14 10:27:51;;;;;;;4.80;2.70;;;;;;;;;;5051077;28;20105;-60
2023/08/14 10:30:17;;;;;;;6.72;2.92;;;;;;;;;;5051056;28;20047;-62
2023/08/14 10:32:43;;;;;;;5.22;2.85;;;;;;;;;;5048186;28;20068;-62
2023/08/14 10:35:08;;;;;;;5.75;2.90;;;;;;;;;;5050493;28;20092;-61
2023/08/14 10:37:43;;;;;;;7.30;2.80;;;;;;;;;;5050615;28;20464;-61
2023/08/14 10:40:13;;;;;;;6.93;3.08;;;;;;;;;;5050731;28;20025;-61
2023/08/14 10:42:45;;;;;;;5.38;2.63;;;;;;;;;;5050840;28;20044;-62
2023/08/14 10:45:11;;;;;;;4.90;3.03;;;;;;;;;;5050008;28;20020;-62
2023/08/14 10:47:41;;;;;;;6.03;2.60;;;;;;;;;;5049057;28;20017;-61
2023/08/14 10:50:17;;;;;;;5.88;3.05;;;;;;;;;;5039886;28;20025;-61
2023/08/14 10:52:49;;;;;;;5.35;2.88;;;;;;;;;;5047881;28;20021;-61
2023/08/14 10:55:16;;;;;;;6.35;2.83;;;;;;;;;;5048259;28;20100;-60
2023/08/14 10:57:41;;;;;;;5.72;2.70;;;;;;;;;;5049950;28;20393;-61
2023/08/14 11:00:17;;;;;;;6.80;2.80;;;;;;;;;;5041837;28;20023;-60
2023/08/14 11:02:42;;;;;;;5.20;2.70;;;;;;;;;;5044354;28;20028;-60
2023/08/14 11:05:12;;;;;;;5.70;2.90;;;;;;;;;;5049722;28;20005;-61
2023/08/14 11:07:37;;;;;;;6.97;2.95;;;;;;;;;;5050342;28;20049;-60
2023/08/14 11:10:04;;;;;;;6.50;3.03;;;;;;;;;;5050221;28;20049;-59
2023/08/14 11:12:30;;;;;;;6.07;3.00;;;;;;;;;;5048303;28;20020;-60
2023/08/14 11:14:56;;;;;;;6.18;2.72;;;;;;;;;;5047559;28;20020;-59
2023/08/14 11:17:22;;;;;;;5.22;2.38;;;;;;;;;;5050127;28;20017;-60
2023/08/14 11:19:47;;;;;;;5.72;2.80;;;;;;;;;;5050137;28;20385;-59
2023/08/14 11:22:12;;;;;;;5.30;2.70;;;;;;;;;;5050021;28;20021;-59
2023/08/14 11:24:38;;;;;;;7.10;2.70;;;;;;;;;;5049628;28;20063;-61
2023/08/14 11:27:03;;;;;;;6.33;2.87;;;;;;;;;;5044290;28;20099;-62
2023/08/14 11:29:29;;;;;;;8.20;3.20;;;;;;;;;;5049825;28;20371;-59
2023/08/14 11:31:54;;;;;;;4.65;2.67;;;;;;;;;;5048966;28;20028;-60
2023/08/14 11:34:20;;;;;;;5.25;2.70;;;;;;;;;;5051890;28;20032;-60
2023/08/14 11:36:56;;;;;;;4.93;2.72;;;;;;;;;;5051970;28;20051;-59
2023/08/14 11:39:21;;;;;;;9.38;3.33;;;;;;;;;;5049923;28;20508;-60
2023/08/14 11:41:46;;;;;;;8.57;3.30;;;;;;;;;;5050187;28;20044;-61
2023/08/14 11:44:11;;;;;;;6.00;2.90;;;;;;;;;;5048981;28;20025;-61
2023/08/14 11:46:38;;;;;;;8.83;3.63;;;;;;;;;;5043476;28;20108;-60
2023/08/14 11:49:04;;;;;;;5.30;3.08;;;;;;;;;;5051603;28;20013;-60
2023/08/14 11:51:29;;;;;;;5.75;3.28;;;;;;;;;;5053745;28;20055;-62
2023/08/14 11:53:54;;;;;;;5.93;3.30;;;;;;;;;;5052862;28;20615;-58
2023/08/14 11:56:20;;;;;;;7.18;3.28;;;;;;;;;;5053438;28;20020;-59
2023/08/14 11:58:45;;;;;;;6.30;3.20;;;;;;;;;;5054007;28;20158;-59
2023/08/14 12:01:10;;;;;;;5.97;3.28;;;;;;;;;;5052440;28;20036;-60
2023/08/14 12:03:36;;;;;;;5.70;3.37;;;;;;;;;;5051961;28;20071;-61
2023/08/14 12:06:02;;;;;;;6.03;3.60;;;;;;;;;;5053380;28;20029;-62
2023/08/14 12:08:28;;;;;;;6.05;3.30;;;;;;;;;;5053335;28;20100;-61
2023/08/14 12:10:53;;;;;;;6.22;3.20;;;;;;;;;;5053150;28;20492;-59
2023/08/14 12:13:19;;;;;;;6.90;3.20;;;;;;;;;;5052308;28;20025;-59
2023/08/14 12:15:46;;;;;;;5.22;3.15;;;;;;;;;;5053560;28;20040;-59
2023/08/14 12:18:12;;;;;;;5.07;3.13;;;;;;;;;;5053183;28;20028;-60
2023/08/14 12:20:37;;;;;;;6.47;2.90;;;;;;;;;;5054614;28;20537;-61
2023/08/14 12:23:12;;;;;;;6.90;3.55;;;;;;;;;;5052702;28;20484;-60
2023/08/14 12:25:38;;;;;;;7.95;3.20;;;;;;;;;;5053004;28;20041;-60
2023/08/14 12:28:03;;;;;;;6.63;3.30;;;;;;;;;;5051909;28;20110;-60
2023/08/14 12:30:28;;;;;;;7.00;3.03;;;;;;;;;;5047696;28;20026;-61
2023/08/14 12:32:53;;;;;;;6.60;3.10;;;;;;;;;;5048484;28;20375;-61
2023/08/14 12:35:18;;;;;;;8.13;3.50;;;;;;;;;;5052599;28;20075;-61
2023/08/14 12:37:44;;;;;;;4.82;2.92;;;;;;;;;;5051113;28;20476;-60
2023/08/14 12:40:10;;;;;;;6.17;3.40;;;;;;;;;;5051077;28;20044;-61
2023/08/14 12:42:36;;;;;;;8.13;3.88;;;;;;;;;;5051856;28;20453;-59
2023/08/14 12:45:02;;;;;;;6.05;3.75;;;;;;;;;;5052161;28;20017;-60
2023/08/14 12:47:27;;;;;;;7.13;3.33;;;;;;;;;;5051413;28;20366;-61
2023/08/14 12:49:52;;;;;;;8.50;3.70;;;;;;;;;;5052509;28;20100;-61
2023/08/14 12:52:18;;;;;;;6.87;3.77;;;;;;;;;;5052354;28;20052;-61
2023/08/14 12:54:43;;;;;;;7.38;3.85;;;;;;;;;;5053803;28;20026;-61
2023/08/14 12:57:08;;;;;;;5.20;3.57;;;;;;;;;;5052587;28;20448;-60
2023/08/14 12:59:33;;;;;;;6.63;3.63;;;;;;;;;;5052265;28;20028;-60
2023/08/14 13:01:58;;;;;;;7.20;3.70;;;;;;;;;;5048240;28;20925;-59
2023/08/14 13:04:23;;;;;;;6.30;4.13;;;;;;;;;;5050646;28;20021;-60
2023/08/14 13:06:49;;;;;;;8.23;4.37;;;;;;;;;;5051470;28;20025;-61
2023/08/14 13:09:14;;;;;;;7.90;4.38;;;;;;;;;;5051623;28;20265;-60
2023/08/14 13:11:40;;;;;;;9.18;4.13;;;;;;;;;;5053579;28;20024;-60
2023/08/14 13:14:05;;;;;;;7.57;4.35;;;;;;;;;;5041482;28;20033;-62
2023/08/14 13:16:30;;;;;;;8.00;4.40;;;;;;;;;;5049725;28;20022;-62
2023/08/14 13:18:56;;;;;;;7.13;4.20;;;;;;;;;;5052089;28;20020;-59
2023/08/14 13:21:21;;;;;;;8.63;4.45;;;;;;;;;;5048559;28;20028;-60
2023/08/14 13:23:46;;;;;;;8.47;4.67;;;;;;;;;;5038898;28;20045;-60
2023/08/14 13:26:11;;;;;;;8.07;4.45;;;;;;;;;;5051573;28;20392;-61
2023/08/14 13:28:37;;;;;;;6.60;4.33;;;;;;;;;;5053373;28;20086;-61
2023/08/14 13:31:06;;;;;;;6.68;4.53;;;;;;;;;;5050731;28;20384;-61
2023/08/14 13:33:31;;;;;;;6.20;4.30;;;;;;;;;;5041734;28;20021;-60
2023/08/14 13:35:56;;;;;;;7.03;5.20;;;;;;;;;;5048426;28;20029;-60
2023/08/14 13:38:21;;;;;;;8.48;4.75;;;;;;;;;;5048227;28;20028;-61
2023/08/14 13:40:47;;;;;;;10.20;4.80;;;;;;;;;;5036983;28;20040;-60
2023/08/14 13:43:13;;;;;;;10.23;4.90;;;;;;;;;;5049664;28;20017;-60
2023/08/14 13:45:38;;;;;;;7.57;4.88;;;;;;;;;;5051592;28;20031;-60
2023/08/14 13:48:03;;;;;;;10.03;5.63;;;;;;;;;;5045501;28;20415;-60
2023/08/14 13:50:29;;;;;;;7.77;4.80;;;;;;;;;;5049949;28;20017;-60
2023/08/14 13:52:54;;;;;;;7.25;5.00;;;;;;;;;;5050390;28;20409;-60
2023/08/14 13:55:19;;;;;;;9.43;5.17;;;;;;;;;;5058290;28;20041;-60
2023/08/14 13:57:45;;;;;;;7.27;4.73;;;;;;;;;;5051461;28;20053;-61
2023/08/14 14:00:10;;;;;;;6.90;4.83;;;;;;;;;;5049780;28;20463;-60
2023/08/14 14:02:35;;;;;;;7.50;4.75;;;;;;;;;;5033584;28;20036;-60
2023/08/14 14:05:00;;;;;;;8.90;5.20;;;;;;;;;;5050741;28;20661;-60
2023/08/14 14:07:26;;;;;;;6.93;4.93;;;;;;;;;;5047334;28;20076;-61
2023/08/14 14:09:52;;;;;;;6.67;4.57;;;;;;;;;;5046698;28;20538;-61
2023/08/14 14:12:17;;;;;;;8.57;4.35;;;;;;;;;;5045091;28;20036;-61
2023/08/14 14:14:42;;;;;;;8.40;4.28;;;;;;;;;;5049524;28;20017;-60
2023/08/14 14:17:07;;;;;;;8.80;4.83;;;;;;;;;;5049218;28;20021;-60
2023/08/14 14:19:33;;;;;;;8.85;4.85;;;;;;;;;;5051217;28;20565;-60
2023/08/14 14:21:58;;;;;;;10.70;4.90;;;;;;;;;;5039185;28;20032;-61
2023/08/14 14:24:24;;;;;;;7.28;4.63;;;;;;;;;;5048444;28;20362;-60
2023/08/14 14:26:49;;;;;;;8.82;4.45;;;;;;;;;;5050730;28;20059;-61
2023/08/14 14:29:15;;;;;;;6.83;4.70;;;;;;;;;;5048345;28;20072;-61
2023/08/14 14:31:40;;;;;;;7.97;4.45;;;;;;;;;;5039835;28;20128;-62
2023/08/14 14:34:05;;;;;;;7.60;4.43;;;;;;;;;;5050557;28;20033;-61
2023/08/14 14:36:30;;;;;;;7.20;4.72;;;;;;;;;;5050106;28;20448;-61
2023/08/14 14:38:56;;;;;;;9.50;4.33;;;;;;;;;;5050917;28;20013;-60
2023/08/14 14:41:21;;;;;;;6.30;3.93;;;;;;;;;;5048957;28;20020;-61
2023/08/14 14:43:46;;;;;;;7.43;4.10;;;;;;;;;;5048347;28;20480;-60